Time;durP1;ratioP1;P1;durP2;ratioP2;P2;SDS_P1;SDS_P2;PMS_P1;PMS_P2;Temp;Humidity;BMP_temperature;BMP_pressure;BME280_temperature;BME280_humidity;BME280_pressure;Samples;Min_cycle;Max_cycle;Signal;HPM_P1;HPM_P2
2022/06/02 00:00:15;;;;;;;7.95;7.15;;;13.60;99.90;;;;;;4989777;28;20045;-57
2022/06/02 00:02:57;;;;;;;10.00;7.18;;;13.60;99.90;;;;;;4983040;28;20105;-57
2022/06/02 00:05:52;;;;;;;8.07;7.28;;;13.50;99.90;;;;;;4968544;28;20190;-57
2022/06/02 00:09:10;;;;;;;16.95;8.20;;;13.50;99.90;;;;;;4970204;28;20190;-56
2022/06/02 00:12:02;;;;;;;9.43;7.20;;;13.60;99.90;;;;;;4944696;28;20042;-56
2022/06/02 00:14:46;;;;;;;10.55;7.90;;;13.60;99.90;;;;;;4929134;28;20752;-55
2022/06/02 00:17:19;;;;;;;9.40;6.97;;;13.50;99.90;;;;;;4980855;28;20053;-56
2022/06/02 00:20:08;;;;;;;9.95;7.50;;;13.50;99.90;;;;;;4992667;28;20055;-55
2022/06/02 00:22:47;;;;;;;10.30;7.88;;;13.50;99.90;;;;;;4988759;28;20257;-57
2022/06/02 00:25:45;;;;;;;9.32;7.88;;;13.50;99.90;;;;;;4993420;28;20593;-56
2022/06/02 00:28:22;;;;;;;20.52;10.10;;;13.40;99.90;;;;;;4973999;28;20067;-57
2022/06/02 00:31:25;;;;;;;7.95;7.03;;;13.40;99.90;;;;;;4987851;28;20041;-57
2022/06/02 00:34:08;;;;;;;9.48;8.48;;;13.40;99.90;;;;;;4988920;28;20044;-57
2022/06/02 00:36:44;;;;;;;11.93;7.75;;;13.40;99.90;;;;;;4990587;28;20140;-55
2022/06/02 00:39:17;;;;;;;7.35;6.57;;;13.40;99.90;;;;;;4987405;28;20038;-57
2022/06/02 00:42:16;;;;;;;9.75;8.38;;;13.40;99.90;;;;;;4987230;28;20061;-57
2022/06/02 00:45:15;;;;;;;10.05;8.70;;;13.40;99.90;;;;;;4989473;28;20113;-57
2022/06/02 00:47:59;;;;;;;13.38;8.57;;;13.30;99.90;;;;;;4953493;28;20166;-57
2022/06/02 00:50:35;;;;;;;15.45;8.15;;;13.30;99.90;;;;;;4988834;28;20559;-56
2022/06/02 00:53:21;;;;;;;13.88;8.95;;;13.30;99.90;;;;;;4988195;28;20355;-57
2022/06/02 00:59:23;;;;;;;9.18;6.22;;;13.30;99.90;;;;;;4989604;28;20056;-57
2022/06/02 01:01:51;;;;;;;8.82;7.88;;;13.30;99.90;;;;;;4986825;28;20308;-56
2022/06/02 01:04:19;;;;;;;14.70;8.70;;;13.20;99.90;;;;;;4981053;28;20052;-56
2022/06/02 01:07:13;;;;;;;10.77;7.68;;;13.20;99.90;;;;;;4968916;28;20042;-56
2022/06/02 01:10:02;;;;;;;13.68;8.73;;;13.20;99.90;;;;;;4969849;28;20046;-56
2022/06/02 01:12:40;;;;;;;10.23;9.20;;;13.20;99.90;;;;;;4973554;28;20116;-57
2022/06/02 01:15:18;;;;;;;13.23;9.60;;;13.10;99.90;;;;;;4992912;28;20178;-56
2022/06/02 01:18:10;;;;;;;14.25;8.55;;;13.10;99.90;;;;;;4984271;28;20376;-57
2022/06/02 01:21:07;;;;;;;10.50;9.13;;;13.00;99.90;;;;;;4989351;28;20039;-56
2022/06/02 01:24:07;;;;;;;11.13;8.80;;;13.00;99.90;;;;;;4987036;28;20079;-56
2022/06/02 01:27:00;;;;;;;9.00;6.97;;;13.00;99.90;;;;;;4991467;28;20040;-57
2022/06/02 01:29:46;;;;;;;9.77;8.27;;;13.00;99.90;;;;;;4987440;28;20937;-57
2022/06/02 01:32:16;;;;;;;8.23;7.30;;;13.00;99.90;;;;;;4989062;28;20215;-57
2022/06/02 01:34:49;;;;;;;10.80;7.80;;;13.10;99.90;;;;;;4986989;28;20037;-56
2022/06/02 01:37:40;;;;;;;6.90;6.20;;;13.10;99.90;;;;;;4991396;28;20108;-55
2022/06/02 01:40:26;;;;;;;7.05;5.88;;;13.00;99.90;;;;;;4990174;28;20754;-56
2022/06/02 01:43:05;;;;;;;12.77;9.07;;;13.10;99.90;;;;;;4967429;28;20223;-56
2022/06/02 01:45:56;;;;;;;9.00;7.32;;;13.10;99.90;;;;;;4970284;28;20048;-56
2022/06/02 01:48:29;;;;;;;7.80;6.35;;;13.10;99.90;;;;;;4962446;28;20633;-55
2022/06/02 01:51:02;;;;;;;7.43;6.55;;;13.10;99.90;;;;;;4969492;28;20126;-56
2022/06/02 01:53:43;;;;;;;9.85;6.53;;;13.10;99.90;;;;;;4967216;28;20064;-56
2022/06/02 01:56:29;;;;;;;11.82;7.90;;;13.20;99.90;;;;;;4967431;28;20571;-56
2022/06/02 01:59:02;;;;;;;9.45;7.38;;;13.10;99.90;;;;;;4966609;28;20772;-55
2022/06/02 02:02:14;;;;;;;8.07;7.00;;;13.10;99.90;;;;;;4965734;28;20559;-56
2022/06/02 02:04:44;;;;;;;12.55;8.38;;;13.10;99.90;;;;;;4942494;28;20624;-56
2022/06/02 02:07:20;;;;;;;9.10;6.78;;;13.20;99.90;;;;;;4967615;28;20119;-55
2022/06/02 02:10:11;;;;;;;8.10;6.30;;;13.20;99.90;;;;;;4971449;28;20111;-56
2022/06/02 02:13:15;;;;;;;6.57;5.95;;;13.20;99.90;;;;;;4973669;28;20757;-56
2022/06/02 02:16:08;;;;;;;8.50;7.40;;;13.20;99.90;;;;;;4989872;28;20412;-56
2022/06/02 02:18:54;;;;;;;7.95;6.93;;;13.20;99.90;;;;;;4966298;28;20175;-56
2022/06/02 02:21:40;;;;;;;12.30;10.63;;;13.20;99.90;;;;;;4970505;28;20722;-56
2022/06/02 02:24:20;;;;;;;7.47;6.78;;;13.20;99.90;;;;;;4969953;28;20340;-56
2022/06/02 02:27:02;;;;;;;7.32;6.57;;;13.20;99.90;;;;;;4969768;28;20136;-56
2022/06/02 02:29:47;;;;;;;9.38;8.38;;;13.20;99.90;;;;;;4968185;28;20519;-57
2022/06/02 02:32:32;;;;;;;12.32;7.93;;;13.20;99.90;;;;;;4968236;28;20127;-55
2022/06/02 02:35:06;;;;;;;6.72;6.13;;;13.20;99.90;;;;;;4970164;28;20045;-56
2022/06/02 02:37:58;;;;;;;11.07;9.13;;;13.20;99.90;;;;;;4967689;28;20034;-55
2022/06/02 02:40:32;;;;;;;13.60;7.70;;;13.10;99.90;;;;;;4969332;28;20727;-55
2022/06/02 02:43:10;;;;;;;10.48;8.70;;;13.10;99.90;;;;;;4965864;28;20042;-56
2022/06/02 02:46:04;;;;;;;11.40;10.18;;;13.10;99.90;;;;;;4966886;28;20148;-56
2022/06/02 02:48:51;;;;;;;9.40;8.35;;;13.10;99.90;;;;;;4966770;28;20041;-55
2022/06/02 02:51:55;;;;;;;18.70;9.68;;;13.10;99.90;;;;;;4967850;28;20037;-56
2022/06/02 02:54:40;;;;;;;14.98;10.75;;;13.10;99.90;;;;;;4963217;28;20802;-55
2022/06/02 02:57:29;;;;;;;13.55;11.07;;;13.00;99.90;;;;;;4965970;28;20049;-56
2022/06/02 03:00:12;;;;;;;14.45;12.73;;;13.00;99.90;;;;;;4963683;28;20295;-56
2022/06/02 03:03:10;;;;;;;12.73;11.43;;;13.00;99.90;;;;;;4971780;28;20041;-55
2022/06/02 03:05:56;;;;;;;12.52;9.00;;;13.00;99.90;;;;;;4968719;28;20034;-55
2022/06/02 03:08:49;;;;;;;11.32;10.13;;;13.00;99.90;;;;;;4966205;28;20594;-55
2022/06/02 03:11:25;;;;;;;11.27;10.18;;;13.00;99.90;;;;;;4969016;28;20041;-55
2022/06/02 03:14:08;;;;;;;12.23;10.32;;;13.00;99.90;;;;;;4983093;28;20606;-56
2022/06/02 03:16:38;;;;;;;13.38;9.52;;;13.00;99.90;;;;;;4989174;28;20435;-56
2022/06/02 03:19:33;;;;;;;9.70;8.70;;;13.00;99.90;;;;;;4989351;28;20048;-54
2022/06/02 03:22:37;;;;;;;9.68;8.77;;;13.00;99.90;;;;;;4989897;28;20130;-54
2022/06/02 03:25:33;;;;;;;9.77;8.73;;;13.00;99.90;;;;;;4987477;28;20053;-56
2022/06/02 03:28:38;;;;;;;11.60;10.38;;;13.00;99.90;;;;;;4985141;28;20250;-55
2022/06/02 03:31:14;;;;;;;10.82;9.23;;;13.10;99.90;;;;;;4987430;28;20052;-55
2022/06/02 03:34:13;;;;;;;16.77;14.45;;;13.10;99.90;;;;;;4983757;28;20045;-56
2022/06/02 03:36:56;;;;;;;17.42;15.15;;;13.10;99.90;;;;;;4986140;28;20056;-55
2022/06/02 03:39:36;;;;;;;17.70;15.05;;;13.10;99.90;;;;;;4983263;28;20053;-56
2022/06/02 03:42:15;;;;;;;13.07;11.73;;;13.10;99.90;;;;;;4983889;28;20194;-54
2022/06/02 03:44:52;;;;;;;14.15;12.57;;;13.10;99.90;;;;;;4987553;28;20052;-54
2022/06/02 03:47:53;;;;;;;14.25;12.20;;;13.10;99.90;;;;;;4986521;28;20056;-55
2022/06/02 03:50:28;;;;;;;19.52;15.70;;;13.20;99.90;;;;;;4990349;28;20037;-56
2022/06/02 03:53:09;;;;;;;20.25;17.05;;;13.20;99.90;;;;;;4968160;28;20134;-55
2022/06/02 03:56:01;;;;;;;24.70;18.75;;;13.20;99.90;;;;;;4984290;28;20067;-55
2022/06/02 03:58:51;;;;;;;17.33;15.50;;;13.20;99.90;;;;;;4986333;28;20467;-55
2022/06/02 04:01:24;;;;;;;20.65;18.45;;;13.20;99.90;;;;;;4987491;28;20033;-55
2022/06/02 04:04:11;;;;;;;20.92;17.52;;;13.20;99.90;;;;;;4985261;28;20037;-55
2022/06/02 04:06:44;;;;;;;19.50;16.80;;;13.20;99.90;;;;;;4969470;28;20467;-55
2022/06/02 04:09:19;;;;;;;24.67;18.48;;;13.20;99.90;;;;;;4963966;28;21336;-55
2022/06/02 04:15:12;;;;;;;15.02;13.40;;;13.20;99.90;;;;;;4967193;28;20107;-55
2022/06/02 04:18:08;;;;;;;20.75;16.98;;;13.20;99.90;;;;;;4984257;28;20087;-54
2022/06/02 04:20:56;;;;;;;17.95;14.13;;;13.20;99.90;;;;;;4986661;28;20239;-56
2022/06/02 04:23:35;;;;;;;17.67;14.95;;;13.20;99.90;;;;;;4989978;28;20033;-55
2022/06/02 04:26:18;;;;;;;16.55;14.60;;;13.20;99.90;;;;;;4991818;28;20052;-58
2022/06/02 04:28:54;;;;;;;18.55;16.02;;;13.20;99.90;;;;;;4990526;28;20049;-56
2022/06/02 04:31:54;;;;;;;18.52;15.55;;;13.20;99.90;;;;;;4985841;28;20763;-56
2022/06/02 04:34:21;;;;;;;28.95;20.83;;;13.20;99.90;;;;;;4992652;28;20064;-55
2022/06/02 04:37:14;;;;;;;21.42;17.35;;;13.20;99.90;;;;;;4988197;28;20855;-56
2022/06/02 04:40:15;;;;;;;14.75;13.10;;;13.20;99.90;;;;;;4991943;28;20135;-56
2022/06/02 04:43:26;;;;;;;30.25;21.23;;;13.20;99.90;;;;;;4988568;28;20620;-57
2022/06/02 04:46:26;;;;;;;24.27;19.25;;;13.10;99.90;;;;;;4912919;28;20149;-55
2022/06/02 04:49:02;;;;;;;21.35;17.02;;;13.20;99.90;;;;;;4894979;28;20821;-55
2022/06/02 04:51:47;;;;;;;17.38;14.65;;;13.20;99.90;;;;;;4972404;28;20142;-56
2022/06/02 04:54:29;;;;;;;20.35;16.60;;;13.20;99.90;;;;;;4988762;28;20041;-56
2022/06/02 04:57:25;;;;;;;16.90;14.90;;;13.30;99.90;;;;;;4993413;28;20037;-57
2022/06/02 05:00:21;;;;;;;21.02;17.35;;;13.40;99.90;;;;;;4992556;28;20049;-56
2022/06/02 05:03:06;;;;;;;21.90;18.25;;;13.40;99.90;;;;;;4990965;28;20398;-57
2022/06/02 05:05:56;;;;;;;20.63;16.70;;;13.50;99.90;;;;;;4984283;28;20040;-57
2022/06/02 05:08:50;;;;;;;26.05;18.70;;;13.60;99.90;;;;;;4965262;28;20123;-54
2022/06/02 05:11:24;;;;;;;27.05;22.48;;;13.60;99.90;;;;;;4971376;28;20088;-54
2022/06/02 05:14:16;;;;;;;21.67;19.02;;;13.70;99.90;;;;;;4988553;28;20072;-52
2022/06/02 05:17:14;;;;;;;22.23;19.92;;;13.70;99.90;;;;;;4990590;28;20063;-55
2022/06/02 05:20:22;;;;;;;29.45;22.10;;;13.80;99.90;;;;;;4987130;28;20613;-53
2022/06/02 05:23:13;;;;;;;23.02;20.60;;;13.80;99.90;;;;;;4988524;28;20041;-55
2022/06/02 05:25:58;;;;;;;22.33;19.92;;;13.90;99.90;;;;;;4991364;28;20048;-53
2022/06/02 05:28:59;;;;;;;21.40;18.52;;;13.90;99.90;;;;;;4987494;28;20055;-54
2022/06/02 05:31:48;;;;;;;25.58;20.60;;;13.90;99.90;;;;;;4989071;28;20516;-53
2022/06/02 05:34:18;;;;;;;26.60;22.05;;;13.90;99.90;;;;;;4987294;28;20225;-54
2022/06/02 05:36:54;;;;;;;28.67;21.77;;;13.90;99.90;;;;;;4988142;28;20664;-56
2022/06/02 05:39:50;;;;;;;24.00;21.13;;;14.00;99.90;;;;;;4989113;28;20209;-55
2022/06/02 05:42:44;;;;;;;20.50;17.45;;;14.00;99.90;;;;;;4986948;28;20506;-55
2022/06/02 05:45:54;;;;;;;19.08;17.08;;;14.10;99.90;;;;;;4988500;28;20585;-56
2022/06/02 05:48:44;;;;;;;26.45;21.35;;;14.10;99.90;;;;;;4962646;28;20053;-56
2022/06/02 05:51:19;;;;;;;24.20;18.40;;;14.20;99.90;;;;;;4982064;28;20041;-54
2022/06/02 05:53:49;;;;;;;23.42;19.98;;;14.20;99.90;;;;;;5020715;28;20059;-56
2022/06/02 05:56:26;;;;;;;22.45;18.48;;;14.30;99.90;;;;;;4988513;28;20223;-55
2022/06/02 05:59:26;;;;;;;18.85;16.73;;;14.30;99.90;;;;;;4986713;28;20048;-54
2022/06/02 06:02:25;;;;;;;20.83;15.50;;;14.30;99.90;;;;;;4982856;28;20945;-55
2022/06/02 06:05:07;;;;;;;17.98;15.30;;;14.30;99.90;;;;;;4985053;28;20171;-55
2022/06/02 06:07:52;;;;;;;19.35;15.98;;;14.40;99.90;;;;;;4992927;28;20048;-55
2022/06/02 06:10:29;;;;;;;14.30;12.90;;;14.40;99.90;;;;;;4988676;28;20154;-59
2022/06/02 06:13:03;;;;;;;;;;;14.30;99.90;;;;;;4991778;28;20538;-61
2022/06/02 06:15:59;;;;;;;18.70;15.48;;;14.30;99.90;;;;;;4985843;28;19920;-61
2022/06/02 06:18:51;;;;;;;21.58;19.02;;;14.30;99.90;;;;;;4969781;28;20108;-56
2022/06/02 06:21:27;;;;;;;18.27;15.88;;;14.20;99.90;;;;;;4970230;28;20045;-54
2022/06/02 06:24:26;;;;;;;19.77;17.67;;;14.20;99.90;;;;;;4977212;28;20045;-56
2022/06/02 06:27:25;;;;;;;30.40;24.42;;;14.20;99.90;;;;;;4989566;28;20546;-54
2022/06/02 06:30:03;;;;;;;34.15;22.50;;;14.30;99.90;;;;;;4987395;28;20064;-55
2022/06/02 06:32:48;;;;;;;18.65;16.63;;;14.30;99.90;;;;;;4988073;28;20644;-54
2022/06/02 06:36:11;;;;;;;23.98;19.65;;;14.30;99.90;;;;;;4982600;28;20045;-56
2022/06/02 06:38:57;;;;;;;21.58;17.75;;;14.30;99.90;;;;;;4934846;28;20056;-55
2022/06/02 06:41:52;;;;;;;20.75;16.10;;;14.40;99.90;;;;;;4974643;28;20767;-54
2022/06/02 06:44:38;;;;;;;22.98;17.42;;;14.40;99.90;;;;;;4988011;28;20206;-54
2022/06/02 06:47:29;;;;;;;23.48;18.98;;;14.40;99.90;;;;;;4990676;28;20573;-54
2022/06/02 06:50:11;;;;;;;18.23;14.85;;;14.50;99.90;;;;;;4987994;28;20379;-56
2022/06/02 06:52:44;;;;;;;18.00;14.88;;;14.50;99.90;;;;;;4989040;28;20047;-55
2022/06/02 06:55:19;;;;;;;15.27;13.63;;;14.60;99.90;;;;;;4990855;28;20376;-55
2022/06/02 06:58:31;;;;;;;19.95;16.10;;;14.60;99.90;;;;;;4990253;28;20056;-55
2022/06/02 07:01:30;;;;;;;17.30;15.50;;;14.70;99.90;;;;;;4987879;28;20037;-55
2022/06/02 07:04:25;;;;;;;22.52;18.48;;;14.70;99.90;;;;;;4950771;28;20330;-56
2022/06/02 07:07:10;;;;;;;23.23;19.70;;;14.70;99.90;;;;;;4988002;28;20124;-55
2022/06/02 07:10:02;;;;;;;21.20;16.90;;;14.60;99.90;;;;;;4974658;28;20701;-55
2022/06/02 07:13:19;;;;;;;19.45;15.93;;;14.60;99.90;;;;;;4977749;28;20800;-53
2022/06/02 07:16:14;;;;;;;18.30;15.63;;;14.60;99.90;;;;;;4955671;28;20045;-55
2022/06/02 07:18:59;;;;;;;19.30;14.88;;;14.70;99.90;;;;;;4990779;28;20041;-54
2022/06/02 07:21:32;;;;;;;17.10;15.18;;;14.80;99.90;;;;;;4992142;28;20562;-52
2022/06/02 07:24:18;;;;;;;17.60;15.80;;;14.90;99.90;;;;;;4994268;28;20458;-54
2022/06/02 07:27:05;;;;;;;18.48;16.52;;;15.00;99.90;;;;;;4989743;28;20036;-54
2022/06/02 07:29:53;;;;;;;16.52;14.75;;;15.10;99.90;;;;;;4990862;28;20784;-53
2022/06/02 07:32:26;;;;;;;20.15;16.13;;;15.20;99.90;;;;;;4992547;28;20048;-55
2022/06/02 07:35:18;;;;;;;18.50;15.45;;;15.20;99.90;;;;;;4991691;28;20400;-54
2022/06/02 07:38:04;;;;;;;21.25;17.15;;;15.20;99.90;;;;;;4992491;28;20048;-53
2022/06/02 07:40:50;;;;;;;19.08;14.00;;;15.30;99.90;;;;;;4992948;28;20440;-54
2022/06/02 07:43:49;;;;;;;15.38;13.68;;;15.40;99.90;;;;;;4990831;28;20064;-53
2022/06/02 07:46:41;;;;;;;15.73;14.13;;;15.40;99.90;;;;;;4990772;28;20050;-56
2022/06/02 07:49:32;;;;;;;20.77;16.02;;;15.50;99.90;;;;;;4988627;28;20045;-54
2022/06/02 07:52:08;;;;;;;16.80;14.52;;;15.50;99.90;;;;;;4993403;28;20037;-54
2022/06/02 07:54:50;;;;;;;17.45;14.23;;;15.60;99.90;;;;;;4992698;28;20778;-53
2022/06/02 07:57:27;;;;;;;15.13;13.60;;;15.60;99.90;;;;;;4991864;28;21024;-55
2022/06/02 07:59:54;;;;;;;;;;;15.70;99.90;;;;;;4994648;28;20538;-54
2022/06/02 08:02:27;;;;;;;18.05;15.38;;;15.70;99.90;;;;;;4996220;28;20451;-54
2022/06/02 08:05:01;;;;;;;19.25;13.23;;;15.80;99.90;;;;;;4977617;28;20333;-55
2022/06/02 08:07:39;;;;;;;20.02;17.33;;;15.80;99.90;;;;;;4975900;28;20190;-54
2022/06/02 08:10:18;;;;;;;18.42;15.13;;;15.90;99.90;;;;;;4978066;28;20068;-54
2022/06/02 08:13:07;;;;;;;29.40;17.83;;;15.90;99.90;;;;;;4984067;28;20148;-53
2022/06/02 08:15:59;;;;;;;21.27;16.50;;;15.90;99.90;;;;;;4996075;28;20041;-53
2022/06/02 08:18:32;;;;;;;15.95;13.52;;;15.90;99.90;;;;;;4975472;28;20116;-54
2022/06/02 08:21:15;;;;;;;16.05;13.98;;;16.00;99.90;;;;;;4978277;28;20045;-54
2022/06/02 08:24:10;;;;;;;15.10;12.90;;;16.00;99.90;;;;;;4976761;28;20041;-55
2022/06/02 08:26:45;;;;;;;20.83;15.93;;;16.20;99.90;;;;;;4977576;28;20323;-54
2022/06/02 08:29:49;;;;;;;22.10;16.98;;;16.30;99.90;;;;;;4984776;28;20045;-53
2022/06/02 08:32:25;;;;;;;;;;;16.50;99.90;;;;;;4992717;28;20543;-55
2022/06/02 08:35:04;;;;;;;22.75;16.02;;;16.70;99.90;;;;;;4993509;28;19921;-58
2022/06/02 08:37:47;;;;;;;15.80;14.07;;;16.90;99.90;;;;;;4994393;28;20068;-60
2022/06/02 08:40:56;;;;;;;19.45;15.68;;;17.20;99.90;;;;;;4994241;28;20109;-54
2022/06/02 08:44:02;;;;;;;16.83;14.32;;;17.70;99.90;;;;;;4995773;28;20756;-57
2022/06/02 08:47:15;;;;;;;20.88;13.68;;;17.90;99.90;;;;;;4988225;28;20049;-59
2022/06/02 08:49:45;;;;;;;11.55;10.38;;;18.10;99.90;;;;;;4990101;28;20412;-58
2022/06/02 08:52:51;;;;;;;15.02;11.82;;;18.20;99.90;;;;;;4975316;28;20754;-56
2022/06/02 08:55:41;;;;;;;15.90;12.98;;;18.40;99.90;;;;;;4991770;28;20150;-53
2022/06/02 08:58:34;;;;;;;16.00;14.35;;;18.60;99.90;;;;;;4995096;28;20045;-55
2022/06/02 09:01:24;;;;;;;18.13;13.30;;;18.80;99.90;;;;;;4994508;28;20147;-60
2022/06/02 09:04:29;;;;;;;15.35;13.30;;;18.90;99.90;;;;;;4994689;28;20073;-56
2022/06/02 09:07:14;;;;;;;14.27;12.75;;;18.90;99.90;;;;;;5017417;28;20709;-55
2022/06/02 09:10:26;;;;;;;15.77;12.80;;;19.10;99.90;;;;;;4994636;28;20037;-55
2022/06/02 09:13:18;;;;;;;16.10;13.73;;;19.20;99.90;;;;;;4994566;28;20032;-56
2022/06/02 09:16:04;;;;;;;12.77;11.43;;;19.20;99.90;;;;;;4996082;28;20041;-56
2022/06/02 09:19:05;;;;;;;11.75;10.45;;;19.10;99.90;;;;;;5002105;28;20076;-55
2022/06/02 09:21:42;;;;;;;13.45;12.07;;;19.00;99.90;;;;;;4995061;28;20187;-55
2022/06/02 09:24:33;;;;;;;15.85;11.98;;;19.00;99.90;;;;;;4977853;28;20039;-56
2022/06/02 09:27:28;;;;;;;11.52;10.10;;;18.80;99.90;;;;;;4977806;28;20194;-55
2022/06/02 09:30:05;;;;;;;10.63;8.25;;;18.70;99.90;;;;;;4972101;28;20045;-54
2022/06/02 09:36:38;;;;;;;11.45;10.27;;;18.80;99.90;;;;;;4973381;28;20045;-56
2022/06/02 09:39:29;;;;;;;12.15;10.07;;;19.00;99.90;;;;;;4974278;28;20758;-55
2022/06/02 09:42:28;;;;;;;12.75;10.95;;;19.20;99.90;;;;;;5005196;28;20108;-53
2022/06/02 09:45:31;;;;;;;13.63;12.23;;;19.70;99.90;;;;;;4992272;28;20045;-55
2022/06/02 09:48:30;;;;;;;13.20;11.13;;;20.20;99.90;;;;;;4996067;28;21292;-53
2022/06/02 09:51:25;;;;;;;13.88;10.57;;;20.50;99.90;;;;;;4985372;28;20554;-69
2022/06/02 09:54:16;;;;;;;13.10;11.43;;;20.70;99.90;;;;;;4988601;28;20270;-55
2022/06/02 09:57:55;;;;;;;11.70;10.35;;;20.90;99.90;;;;;;4991765;28;20032;-55
2022/06/02 10:00:03;;;;;;;17.92;12.65;;;21.10;99.90;;;;;;4990404;28;20399;-55
2022/06/02 10:02:52;;;;;;;14.43;10.43;;;21.30;99.90;;;;;;4988969;28;20055;-55
2022/06/02 10:05:30;;;;;;;11.68;9.85;;;21.50;99.90;;;;;;4992968;28;20126;-55
2022/06/02 10:08:09;;;;;;;10.35;7.75;;;21.70;99.90;;;;;;4990748;28;20044;-56
2022/06/02 10:10:39;;;;;;;11.23;9.05;;;21.80;99.90;;;;;;4992283;28;20037;-56
2022/06/02 10:13:28;;;;;;;10.57;9.57;;;21.90;99.90;;;;;;4988195;28;20043;-55
2022/06/02 10:16:29;;;;;;;9.65;8.55;;;22.00;99.90;;;;;;4985801;28;20115;-55
2022/06/02 10:19:21;;;;;;;10.30;9.00;;;22.10;99.90;;;;;;4969334;28;20140;-56
2022/06/02 10:22:12;;;;;;;12.25;9.30;;;22.00;99.90;;;;;;4970982;28;20045;-55
2022/06/02 10:24:59;;;;;;;10.57;8.38;;;21.90;99.90;;;;;;4970651;28;20322;-56
2022/06/02 10:27:43;;;;;;;8.10;7.30;;;21.70;99.90;;;;;;4969044;28;20041;-58
2022/06/02 10:30:10;;;;;;;8.02;6.88;;;21.70;99.90;;;;;;4971062;28;20351;-56
2022/06/02 10:32:42;;;;;;;9.88;8.57;;;21.60;99.90;;;;;;4972060;28;20341;-56
2022/06/02 10:35:34;;;;;;;10.00;7.65;;;21.60;99.90;;;;;;4969979;28;20064;-56
2022/06/02 10:38:27;;;;;;;8.60;7.72;;;21.70;99.90;;;;;;4984505;28;20187;-55
2022/06/02 10:41:15;;;;;;;13.73;11.70;;;21.90;99.90;;;;;;4973694;28;20838;-55
2022/06/02 10:44:12;;;;;;;9.05;7.85;;;21.90;99.90;;;;;;4993138;28;20321;-55
2022/06/02 10:47:16;;;;;;;8.90;7.97;;;21.80;99.90;;;;;;4989968;28;20041;-55
2022/06/02 10:49:55;;;;;;;8.88;7.93;;;21.90;99.90;;;;;;4991531;28;20041;-55
2022/06/02 10:52:42;;;;;;;8.77;7.60;;;21.90;99.90;;;;;;4976743;28;20036;-55
2022/06/02 10:56:00;;;;;;;7.13;6.53;;;22.00;99.90;;;;;;4985001;28;20045;-69
2022/06/02 10:58:33;;;;;;;12.50;8.48;;;22.10;99.90;;;;;;4954086;28;20607;-55
2022/06/02 11:01:27;;;;;;;10.07;8.43;;;22.30;99.90;;;;;;4989377;28;20581;-63
2022/06/02 11:04:16;;;;;;;9.00;7.35;;;22.60;99.90;;;;;;4988629;28;20479;-52
2022/06/02 11:07:04;;;;;;;9.45;7.65;;;22.70;99.90;;;;;;4992269;28;20489;-53
2022/06/02 11:10:04;;;;;;;7.28;6.63;;;23.00;99.90;;;;;;4992916;28;20036;-54
2022/06/02 11:12:40;;;;;;;6.78;6.10;;;23.30;99.90;;;;;;4987111;28;20718;-52
2022/06/02 11:15:37;;;;;;;7.88;6.70;;;23.50;99.90;;;;;;4992295;28;20126;-54
2022/06/02 11:18:19;;;;;;;7.03;6.32;;;23.70;99.90;;;;;;4988221;28;20052;-53
2022/06/02 11:21:08;;;;;;;8.52;7.20;;;23.80;99.90;;;;;;4987516;28;20464;-54
2022/06/02 11:23:38;;;;;;;7.35;6.53;;;24.00;99.90;;;;;;4990875;28;20317;-55
2022/06/02 11:26:33;;;;;;;10.05;6.97;;;24.30;99.90;;;;;;4988232;28;20119;-53
2022/06/02 11:29:51;;;;;;;14.40;7.80;;;24.40;99.90;;;;;;4993107;28;20325;-53
2022/06/02 11:32:27;;;;;;;11.98;8.05;;;24.40;99.90;;;;;;4964565;28;20049;-53
2022/06/02 11:35:16;;;;;;;9.85;7.15;;;24.60;99.90;;;;;;4995799;28;20841;-54
2022/06/02 11:38:25;;;;;;;7.43;6.57;;;24.70;99.90;;;;;;4999655;28;20554;-55
2022/06/02 11:41:01;;;;;;;;;;;24.80;99.90;;;;;;4993838;28;20041;-58
2022/06/02 11:43:42;;;;;;;8.25;6.78;;;24.90;99.90;;;;;;5000448;28;20323;-53
2022/06/02 11:46:27;;;;;;;6.18;4.47;;;25.00;99.90;;;;;;4995403;28;20421;-54
2022/06/02 11:49:04;;;;;;;15.30;7.45;;;25.20;99.90;;;;;;4996549;28;20064;-50
2022/06/02 11:52:05;;;;;;;6.78;5.53;;;25.30;99.90;;;;;;4994278;28;20045;-53
2022/06/02 11:55:11;;;;;;;5.28;4.72;;;25.20;99.90;;;;;;4990676;28;20376;-53
2022/06/02 11:58:16;;;;;;;5.00;4.60;;;25.10;99.90;;;;;;4993336;28;20570;-50
2022/06/02 12:01:21;;;;;;;5.90;4.88;;;25.00;99.90;;;;;;4998754;28;20103;-48
2022/06/02 12:04:11;;;;;;;7.47;5.45;;;25.10;99.90;;;;;;4995943;28;20159;-53
2022/06/02 12:07:00;;;;;;;6.97;5.57;;;25.00;99.90;;;;;;4998448;28;20422;-53
2022/06/02 12:09:51;;;;;;;7.10;5.20;;;24.80;99.90;;;;;;4995145;28;20041;-52
2022/06/02 12:12:41;;;;;;;6.40;4.68;;;24.80;99.90;;;;;;4997592;28;20040;-52
2022/06/02 12:15:17;;;;;;;4.57;4.15;;;24.80;99.90;;;;;;4995182;28;20751;-53
2022/06/02 12:17:47;;;;;;;6.65;5.40;;;24.70;99.90;;;;;;4994599;28;20199;-53
2022/06/02 12:20:37;;;;;;;9.07;6.05;;;24.50;99.90;;;;;;4992846;28;20036;-54
2022/06/02 12:23:13;;;;;;;6.15;5.18;;;24.20;99.90;;;;;;4996374;28;20044;-53
2022/06/02 12:26:35;;;;;;;5.53;5.03;;;24.00;99.90;;;;;;4997910;28;20052;-53
2022/06/02 12:29:33;;;;;;;8.00;6.55;;;24.00;99.90;;;;;;4956147;28;20034;-53
2022/06/02 12:32:58;;;;;;;13.30;5.75;;;24.20;99.90;;;;;;4991826;28;20557;-57
2022/06/02 12:35:31;;;;;;;7.70;4.30;;;24.50;99.90;;;;;;4993882;28;20049;-56
2022/06/02 12:38:07;;;;;;;5.88;4.40;;;24.70;99.90;;;;;;4993163;28;20155;-57
2022/06/02 12:40:52;;;;;;;4.78;3.58;;;24.90;99.90;;;;;;4993787;28;20053;-57
2022/06/02 12:43:29;;;;;;;5.60;4.25;;;25.10;99.90;;;;;;4977610;28;20198;-56
2022/06/02 12:46:27;;;;;;;3.88;3.53;;;25.30;99.90;;;;;;4989081;28;20045;-56
2022/06/02 12:49:03;;;;;;;4.57;4.18;;;25.50;99.90;;;;;;4993636;28;20040;-58
2022/06/02 12:51:50;;;;;;;3.35;3.05;;;25.80;99.90;;;;;;4990057;28;20144;-57
2022/06/02 12:54:43;;;;;;;5.22;4.15;;;26.00;99.90;;;;;;4974531;28;20590;-56
2022/06/02 12:57:47;;;;;;;3.97;2.95;;;26.10;99.90;;;;;;4985906;28;20067;-56
2022/06/02 13:00:27;;;;;;;4.47;3.33;;;26.20;99.90;;;;;;4994466;28;20198;-56
2022/06/02 13:03:04;;;;;;;5.05;4.30;;;26.40;99.90;;;;;;4995304;28;20720;-56
2022/06/02 13:05:47;;;;;;;3.08;2.22;;;26.40;99.90;;;;;;4993213;28;20657;-56
2022/06/02 13:08:30;;;;;;;7.57;3.80;;;26.50;99.90;;;;;;4993070;28;20590;-56
2022/06/02 13:11:40;;;;;;;9.48;3.95;;;26.50;99.90;;;;;;4988463;28;20214;-57
2022/06/02 13:14:37;;;;;;;5.15;3.88;;;26.40;99.90;;;;;;4993760;28;20582;-56
2022/06/02 13:17:20;;;;;;;4.80;4.13;;;26.40;99.90;;;;;;4985226;28;20099;-56
2022/06/02 13:20:13;;;;;;;3.22;2.92;;;26.30;99.90;;;;;;4991516;28;20554;-55
2022/06/02 13:22:46;;;;;;;7.32;3.55;;;26.20;99.90;;;;;;4991357;28;20399;-55
2022/06/02 13:25:47;;;;;;;3.85;3.40;;;26.00;99.90;;;;;;4991701;28;20597;-56
2022/06/02 13:28:32;;;;;;;7.85;5.13;;;25.80;99.90;;;;;;4992487;28;20395;-55
2022/06/02 13:31:17;;;;;;;4.60;3.47;;;25.80;99.90;;;;;;4991450;28;20588;-56
2022/06/02 13:34:22;;;;;;;9.10;4.55;;;25.90;99.90;;;;;;4995149;28;20547;-57
2022/06/02 13:37:26;;;;;;;4.15;3.72;;;25.90;99.90;;;;;;4989223;28;20130;-56
2022/06/02 13:39:59;;;;;;;6.68;4.90;;;25.80;99.90;;;;;;4991311;28;20210;-56
2022/06/02 13:42:45;;;;;;;5.60;4.97;;;25.80;99.90;;;;;;4990795;28;20418;-57
2022/06/02 13:45:26;;;;;;;4.10;3.63;;;25.70;99.90;;;;;;4996209;28;20041;-56
2022/06/02 13:48:14;;;;;;;4.93;4.50;;;25.50;99.90;;;;;;4988820;28;20853;-56
2022/06/02 13:51:12;;;;;;;6.35;3.53;;;25.50;99.90;;;;;;4992232;28;20140;-57
2022/06/02 14:00:07;;;;;;;4.50;3.55;;;24.90;99.90;;;;;;4970610;28;20823;-57
2022/06/02 14:03:00;;;;;;;7.55;3.83;;;24.90;99.90;;;;;;4971300;28;20049;-57
2022/06/02 14:05:48;;;;;;;6.90;4.80;;;24.90;99.90;;;;;;4986810;28;20842;-56
2022/06/02 14:08:26;;;;;;;4.60;3.67;;;25.00;99.90;;;;;;4973612;28;20590;-57
2022/06/02 14:11:08;;;;;;;6.43;4.88;;;25.00;99.90;;;;;;4969444;28;20554;-57
2022/06/02 14:13:56;;;;;;;4.40;3.88;;;25.10;99.90;;;;;;4986954;28;20542;-55
2022/06/02 14:16:42;;;;;;;5.75;4.10;;;25.10;99.90;;;;;;4987109;28;20246;-56
2022/06/02 14:19:24;;;;;;;5.60;4.35;;;25.00;99.90;;;;;;4974014;28;20056;-57
2022/06/02 14:22:18;;;;;;;4.82;3.33;;;25.00;99.90;;;;;;4988173;28;20055;-57
2022/06/02 14:25:06;;;;;;;8.07;4.80;;;24.80;99.90;;;;;;4994677;28;20045;-57
2022/06/02 14:28:03;;;;;;;5.72;4.03;;;24.80;99.90;;;;;;4986426;28;20416;-57
2022/06/02 14:30:45;;;;;;;9.70;4.35;;;24.70;99.90;;;;;;4992650;28;20056;-56
2022/06/02 14:33:26;;;;;;;5.68;3.90;;;24.50;99.90;;;;;;4987753;28;20037;-57
2022/06/02 14:36:08;;;;;;;7.40;4.20;;;24.50;99.90;;;;;;4975312;28;20072;-56
2022/06/02 14:39:01;;;;;;;10.68;3.55;;;24.60;99.90;;;;;;4989670;28;20570;-56